Latest Weather Observations for Glen Innes Airport

IDN60801

Issued at 4:34 pm EDT Tuesday 27 January 2015 (issued every 30 minutes, with the page automatically refreshed every 10 minutes)

About weather observations | Map of weather stations | Latest weather observations for NSW | Other Formats
Station Details ID: 056243 Name: GLEN INNES AIRPORT AWS Lat: -29.68 Lon: 151.69 Height: 1044.3 m
Data from the previous 72 hours. | See also: Recent months for locations in New South Wales
Date/Time
EDT
Temp
°C
App
Temp
°C
Dew
Point
Rel
Hum
%
Delta-T
°C
Wind Press
QNH
hPa
Press
MSL
hPa
Rain
since 9 am
mm
Dir
 
Spd
km/h
Gust
km/h
Spd
kts
Gust
kts
27/04:30pm 17.6 13.4 15.8 89 1.1 E 32 41 17 22 1009.4 1003.6 1.6
27/04:00pm 18.4 15.4 15.8 85 1.6 E 26 43 14 23 1009.8 1003.9 0.4
27/03:30pm 20.3 16.4 16.9 81 2.2 E 33 44 18 24 1010.0 1004.2 0.4
27/03:00pm 21.5 18.5 16.9 75 2.9 ENE 28 41 15 22 1010.8 1004.9 0.2
27/02:30pm 23.3 21.3 15.6 62 4.8 NE 20 28 11 15 1010.9 1005.1 0.2
27/02:00pm 20.8 19.6 17.4 81 2.2 E 20 26 11 14 1011.5 1005.7 0.2
27/01:30pm 20.7 19.5 17.5 82 2.1 E 20 26 11 14 1012.2 1006.4 0.0
27/01:00pm 22.7 21.2 17.6 73 3.3 E 22 32 12 17 1012.4 1006.6 0.0
27/12:30pm 22.3 20.5 17.0 72 3.4 E 22 28 12 15 1013.1 1007.3 0.0
27/12:00pm 22.7 21.2 18.5 77 2.8 ESE 24 32 13 17 1013.5 1007.8 0.0
27/11:30am 20.8 18.3 16.2 75 2.9 ESE 24 32 13 17 1014.0 1008.2 0.0
27/11:00am 20.3 18.8 16.3 78 2.5 E 19 26 10 14 1014.1 1008.3 0.0
27/10:30am 19.7 18.0 16.2 80 2.2 E 20 28 11 15 1013.9 1008.1 0.0
27/10:00am 19.5 16.8 16.5 83 1.9 E 26 33 14 18 1013.9 1008.1 0.0
27/09:30am 18.9 16.3 15.9 83 1.9 E 24 30 13 16 1013.9 1008.1 0.0
27/09:00am 18.3 16.6 16.3 88 1.2 E 20 26 11 14 1014.1 1008.3 20.2
27/08:30am 17.4 15.1 15.7 90 1.0 ESE 22 32 12 17 1013.7 1008.0 20.2
27/08:00am 17.7 15.0 15.7 88 1.2 ESE 24 33 13 18 1013.5 1007.8 20.2
27/07:30am 17.2 14.9 15.7 91 0.9 ESE 22 30 12 16 1013.4 1007.7 20.2
27/07:00am 17.0 15.0 15.5 91 0.9 ESE 20 26 11 14 1013.2 1007.4 20.2
27/06:30am 16.9 14.2 15.6 92 0.8 ESE 24 35 13 19 1012.7 1007.0 20.2
27/06:00am 17.1 14.1 15.8 92 0.8 ESE 26 41 14 22 1012.3 1006.5 20.2
27/05:30am 17.0 14.4 15.9 93 0.7 ESE 24 33 13 18 1012.1 1006.3 20.2
27/05:00am 17.2 14.1 15.7 91 0.9 ESE 26 35 14 19 1012.0 1006.2 20.2
27/04:30am 17.4 14.5 16.1 92 0.8 ESE 26 37 14 20 1012.0 1006.2 20.2
27/04:00am 17.2 15.4 15.9 92 0.8 ESE 20 30 11 16 1012.2 1006.4 20.2
27/03:30am 17.5 15.8 16.2 92 0.8 ESE 20 24 11 13 1012.4 1006.6 20.2
27/03:00am 17.6 17.2 16.1 91 0.9 ESE 13 20 7 11 1013.1 1007.3 20.2
27/02:30am 17.6 15.5 16.1 91 0.9 E 22 30 12 16 1013.1 1007.3 20.2
27/02:00am 17.6 16.1 16.3 92 0.8 E 19 26 10 14 1013.5 1007.8 20.2
27/01:30am 17.6 15.5 16.1 91 0.9 E 22 30 12 16 1013.4 1007.7 20.2
27/01:00am 17.2 15.4 16.1 93 0.7 ESE 20 26 11 14 1013.7 1008.0 20.2
27/12:30am 17.3 15.7 16.0 92 0.8 ESE 19 24 10 13 1014.2 1008.4 20.2
27/12:00am 17.6 15.5 16.3 92 0.8 ESE 22 28 12 15 1014.4 1008.7 20.2
 
Date/Time
EDT
Temp
°C
App
Temp
°C
Dew
Point
Rel
Hum
%
Delta-T
°C
Wind Press
QNH
hPa
Press
MSL
hPa
Rain
since 9 am
mm
Dir
 
Spd
km/h
Gust
km/h
Spd
kts
Gust
kts
26/11:30pm 17.8 16.2 16.5 92 0.8 E 20 26 11 14 1014.6 1008.9 20.2
26/11:00pm 17.7 15.7 16.4 92 0.8 ESE 22 28 12 15 1014.5 1008.8 20.2
26/10:30pm 18.0 15.6 16.5 91 0.9 ESE 24 30 13 16 1014.3 1008.6 20.2
26/10:00pm 18.1 16.5 16.6 91 0.9 E 20 28 11 15 1014.5 1008.8 20.2
26/09:30pm 18.2 15.9 16.7 91 0.9 ESE 24 32 13 17 1014.2 1008.4 20.2
26/09:24pm 18.1 16.2 16.6 91 0.9 E 22 32 12 17 1014.1 1008.3 20.2
26/09:00pm 17.9 13.1 16.6 92 0.8 E 37 50 20 27 1012.1 1006.3 20.0
26/08:54pm 17.8 14.4 16.7 93 0.7 E 30 43 16 23 1012.6 1006.9 20.0
26/08:30pm 17.7 16.3 16.6 93 0.7 ESE 19 24 10 13 1013.6 1007.9 20.0
26/08:00pm 17.8 16.3 16.7 93 0.7 SE 20 28 11 15 1014.0 1008.2 19.8
26/07:30pm 17.8 16.8 16.7 93 0.7 ESE 17 20 9 11 1014.5 1008.8 18.8
26/07:00pm 17.6 16.6 16.5 93 0.7 E 17 26 9 14 1014.4 1008.7 17.8
26/06:30pm 17.7 16.4 15.9 89 1.1 ESE 17 20 9 11 1013.6 1007.9 17.2
26/06:00pm 18.1 15.2 15.0 82 1.9 ESE 24 28 13 15 1012.7 1007.0 16.8
26/05:30pm 18.8 14.7 13.9 73 2.9 ESE 28 35 15 19 1012.6 1006.9 16.8
26/05:00pm 20.2 18.2 15.4 74 3.0 ESE 20 26 11 14 1012.4 1006.6 16.8
26/04:30pm 20.0 17.7 15.8 77 2.6 SE 22 32 12 17 1012.5 1006.8 16.8
26/04:00pm 19.4 15.9 16.6 84 1.8 SSE 30 41 16 22 1012.6 1006.9 16.8
26/03:30pm 17.5 14.4 15.5 88 1.2 SE 26 37 14 20 1012.4 1006.6 16.8
26/03:00pm 17.8 18.0 15.8 88 1.2 ESE 9 13 5 7 1013.7 1008.0 11.8
26/02:30pm 19.4 18.2 16.2 82 2.0 SSE 17 24 9 13 1013.6 1007.9 8.0
26/02:00pm 17.7 16.7 15.7 88 1.2 NE 15 20 8 11 1012.0 1006.2 8.0
26/01:30pm 17.5 15.9 13.8 79 2.2 N 15 26 8 14 1012.6 1006.9 7.0
26/01:04pm 20.6 17.8 12.6 60 4.7 WSW 19 46 10 25 1012.5 1006.8 0.8
26/01:00pm 22.8 20.8 12.7 53 6.1 SE 15 30 8 16 1012.6 1006.9 0.4
26/12:30pm 25.6 26.0 17.3 60 5.4 ESE 11 22 6 12 1012.9 1007.1 0.0
26/12:00pm 26.6 25.8 15.0 49 7.3 NNE 13 20 7 11 1013.2 1007.4 0.0
26/11:30am 28.0 27.4 15.6 46 7.9 E 13 19 7 10 1013.5 1007.8 0.0
26/11:00am 27.5 27.0 16.8 52 7.0 NE 15 22 8 12 1013.7 1008.0 0.0
26/10:30am 24.6 22.8 16.1 59 5.4 SE 20 26 11 14 1013.9 1008.1 0.0
26/10:00am 25.3 24.0 17.2 61 5.3 ESE 20 26 11 14 1014.0 1008.2 0.0
26/09:30am 24.6 25.4 15.8 58 5.6 NE 6 13 3 7 1014.0 1008.2 0.0
26/09:00am 25.2 24.8 17.1 60 5.2 ESE 15 20 8 11 1014.0 1008.2 0.0
26/08:30am 23.0 22.2 17.0 69 3.9 ESE 17 20 9 11 1013.7 1008.0 0.0
26/08:00am 21.0 20.5 16.8 77 2.7 ESE 15 17 8 9 1014.0 1008.2 0.0
26/07:30am 19.8 20.0 16.8 83 1.9 SE 11 17 6 9 1013.6 1007.9 0.0
26/07:00am 16.8 17.4 15.7 93 0.7 ESE 7 9 4 5 1013.4 1007.7 0.0
26/06:30am 14.8 14.6 13.5 92 0.8 SE 7 9 4 5 1013.0 1007.2 0.0
26/06:00am 15.5 15.4 13.9 90 0.9 SE 7 11 4 6 1012.3 1006.5 0.0
26/05:30am 15.6 14.6 14.6 94 0.6 ESE 13 15 7 8 1012.2 1006.4 0.0
26/05:00am 15.5 14.4 14.4 93 0.7 ESE 13 13 7 7 1012.1 1006.3 0.0
26/04:30am 15.8 14.8 14.7 93 0.7 ESE 13 15 7 8 1012.0 1006.2 0.0
26/04:00am 16.6 16.2 15.3 92 0.8 ESE 11 15 6 8 1012.0 1006.2 0.0
26/03:30am 17.4 17.0 16.3 93 0.7 SE 13 15 7 8 1011.9 1006.1 0.0
26/03:00am 16.7 16.3 15.2 91 0.9 SE 11 13 6 7 1012.2 1006.4 0.0
26/02:30am 17.7 17.6 16.0 90 1.1 SE 11 13 6 7 1012.3 1006.5 0.0
26/02:00am 17.3 18.0 16.0 92 0.8 ESE 7 11 4 6 1012.6 1006.9 0.0
26/01:30am 17.3 18.0 16.0 92 0.8 SE 7 9 4 5 1012.6 1006.9 0.0
26/01:00am 17.3 16.7 15.6 90 1.0 SSE 13 15 7 8 1012.6 1006.9 0.0
26/12:30am 18.1 17.8 16.4 90 1.1 ESE 13 15 7 8 1012.9 1007.1 0.0
26/12:00am 18.3 18.6 15.9 86 1.5 SE 9 13 5 7 1012.7 1007.0 0.0
 
Date/Time
EDT
Temp
°C
App
Temp
°C
Dew
Point
Rel
Hum
%
Delta-T
°C
Wind Press
QNH
hPa
Press
MSL
hPa
Rain
since 9 am
mm
Dir
 
Spd
km/h
Gust
km/h
Spd
kts
Gust
kts
25/11:30pm 19.3 18.3 16.7 85 1.6 SE 17 20 9 11 1013.0 1007.2 0.0
25/11:00pm 18.9 20.2 15.2 79 2.3 S 2 11 1 6 1012.6 1006.9 0.0
25/10:30pm 19.5 19.9 15.2 76 2.7 E 7 9 4 5 1012.6 1006.9 0.0
25/10:00pm 20.3 20.4 15.5 74 3.0 ESE 9 11 5 6 1012.6 1006.9 0.0
25/09:30pm 20.6 20.2 15.2 71 3.3 ENE 11 13 6 7 1012.3 1006.5 0.0
25/09:00pm 22.2 22.0 14.6 62 4.7 S 9 17 5 9 1011.6 1005.8 0.0
25/08:30pm 22.5 22.2 15.4 64 4.4 S 11 15 6 8 1011.4 1005.6 0.0
25/08:00pm 23.7 23.0 14.4 56 5.8 S 11 17 6 9 1011.3 1005.5 0.0
25/07:30pm 26.3 25.1 14.1 47 7.6 SW 13 19 7 10 1010.9 1005.1 0.0
25/07:00pm 27.7 25.4 14.0 43 8.6 W 19 26 10 14 1010.3 1004.5 0.0
25/06:30pm 28.6 26.2 14.4 41 8.9 W 20 28 11 15 1010.1 1004.3 0.0
25/06:00pm 29.1 26.7 14.5 41 9.2 W 20 26 11 14 1009.9 1004.0 0.0
25/05:30pm 28.1 24.8 14.0 42 8.8 W 24 37 13 20 1010.1 1004.3 0.0
25/05:00pm 29.1 26.5 13.7 38 9.6 WSW 20 30 11 16 1010.0 1004.2 0.0
25/04:30pm 29.2 26.4 14.2 40 9.4 W 22 33 12 18 1010.0 1004.2 0.0
25/04:00pm 29.3 26.8 15.1 42 9.1 W 22 32 12 17 1010.1 1004.3 0.0
25/03:30pm 28.4 25.5 13.9 41 9.0 W 22 32 12 17 1010.4 1004.6 0.0
25/03:00pm 29.1 26.0 14.5 41 9.2 WSW 24 35 13 19 1010.6 1004.8 0.0
25/02:30pm 28.3 25.0 14.9 44 8.5 WSW 26 37 14 20 1010.8 1004.9 0.0
25/02:00pm 28.6 26.7 16.8 48 7.7 W 22 33 12 18 1011.0 1005.2 0.0
25/01:30pm 26.3 23.3 14.7 48 7.3 W 24 35 13 19 1011.2 1005.4 0.0
25/01:00pm 27.8 25.2 14.8 45 8.2 W 22 33 12 18 1011.3 1005.5 0.0
25/12:30pm 26.7 23.3 13.8 45 8.0 W 24 33 13 18 1011.5 1005.7 0.0
25/12:00pm 26.4 23.4 14.8 49 7.3 W 24 33 13 18 1011.6 1005.8 0.0
25/11:30am 25.8 23.9 15.2 52 6.7 W 19 28 10 15 1011.9 1006.1 0.0
25/11:00am 25.1 23.4 15.7 56 6.0 W 19 24 10 13 1012.0 1006.2 0.0
25/10:30am 23.9 22.6 16.9 65 4.5 WNW 19 24 10 13 1012.3 1006.5 0.0
25/10:00am 22.8 21.8 17.5 72 3.4 W 19 24 10 13 1012.3 1006.5 0.0
25/09:30am 22.2 21.2 16.7 71 3.5 WNW 17 28 9 15 1012.4 1006.6 0.0
25/09:00am 21.5 21.0 16.9 75 2.9 WNW 15 20 8 11 1012.3 1006.5 0.0
25/08:30am 20.6 20.9 17.8 84 1.8 WNW 13 19 7 10 1012.3 1006.5 0.0
25/08:00am 19.4 20.4 17.7 90 1.1 WNW 9 15 5 8 1012.2 1006.4 0.0
25/07:30am 17.9 19.1 17.4 97 0.3 WSW 7 11 4 6 1012.1 1006.3 0.0
25/07:00am 15.3 15.7 14.8 97 0.3 SSE 6 7 3 4 1011.7 1006.0 0.0
25/06:30am 14.1 15.2 13.5 96 0.4 CALM 0 0 0 0 1011.3 1005.5 0.0
25/06:00am 14.0 15.1 13.4 96 0.4 CALM 0 0 0 0 1011.1 1005.3 0.0
25/05:30am 13.5 14.4 12.9 96 0.3 CALM 0 0 0 0 1011.1 1005.3 0.0
25/05:00am 14.1 15.2 13.6 97 0.3 CALM 0 0 0 0 1010.9 1005.1 0.0
25/04:30am 14.2 15.3 13.6 96 0.4 CALM 0 0 0 0 1010.8 1004.9 0.0
25/04:00am 13.2 12.7 12.1 93 0.6 SE 6 7 3 4 1011.1 1005.3 0.0
25/03:30am 13.7 13.2 12.8 94 0.5 SSE 7 9 4 5 1011.0 1005.2 0.0
25/03:00am 13.7 14.1 12.6 93 0.6 NW 2 7 1 4 1010.8 1004.9 0.0
25/02:30am 15.1 16.4 14.1 94 0.6 CALM 0 0 0 0 1011.0 1005.2 0.0
25/02:00am 14.6 15.5 13.0 90 0.9 CALM 0 0 0 0 1011.3 1005.5 0.0
25/01:30am 15.0 16.1 13.4 90 0.9 CALM 0 0 0 0 1011.6 1005.8 0.0
25/01:00am 16.7 17.0 15.1 90 1.0 NW 7 9 4 5 1012.0 1006.2 0.0
25/12:30am 16.7 16.4 14.5 87 1.3 NW 9 9 5 5 1012.2 1006.4 0.0
25/12:00am 17.8 17.9 15.4 86 1.5 N 9 11 5 6 1012.3 1006.5 0.0
 
Date/Time
EDT
Temp
°C
App
Temp
°C
Dew
Point
Rel
Hum
%
Delta-T
°C
Wind Press
QNH
hPa
Press
MSL
hPa
Rain
since 9 am
mm
Dir
 
Spd
km/h
Gust
km/h
Spd
kts
Gust
kts
24/11:30pm 17.3 18.6 14.2 82 1.9 CALM 0 6 0 3 1012.4 1006.6 0.0
24/11:00pm 18.4 19.9 14.7 79 2.3 CALM 0 0 0 0 1012.3 1006.5 0.0
24/10:30pm 18.0 19.4 14.3 79 2.2 CALM 0 0 0 0 1012.3 1006.5 0.0
24/10:00pm 17.9 19.0 13.6 76 2.6 CALM 0 0 0 0 1012.2 1006.4 0.0
24/09:30pm 18.3 18.0 13.2 72 3.0 ESE 7 11 4 6 1011.9 1006.1 0.0
24/09:00pm 19.4 19.0 12.9 66 3.9 E 7 9 4 5 1011.2 1005.4 0.0
24/08:30pm 20.7 20.6 13.2 62 4.5 NE 6 7 3 4 1010.8 1004.9 0.0
24/08:00pm 21.5 20.7 12.9 58 5.2 ENE 9 11 5 6 1010.3 1004.5 0.0
24/07:30pm 23.6 21.8 13.2 52 6.3 E 15 19 8 10 1010.0 1004.2 0.0
24/07:00pm 24.0 22.3 13.5 52 6.4 E 15 19 8 10 1010.0 1004.2 0.0
24/06:30pm 24.4 22.8 12.7 48 7.1 ESE 13 17 7 9 1009.6 1003.8 0.0
24/06:00pm 25.0 23.1 11.9 44 7.8 SE 13 17 7 9 1009.5 1003.7 0.0
24/05:30pm 26.4 24.8 12.8 43 8.3 E 13 20 7 11 1009.8 1003.9 0.0
24/05:00pm 26.3 24.8 10.5 37 9.3 SSE 9 19 5 10 1010.0 1004.2 0.0

Other Formats:

Comma delimited format used in spreadsheet applications
http://www.bom.gov.au/fwo/IDN60801/IDN60801.94588.axf

JavaScript Object Notation format (JSON) in row-major order
http://www.bom.gov.au/fwo/IDN60801/IDN60801.94588.json